Terminal Aerodrome Forecast
Issued by NWS

Home | Current Version | Previous Version | Graphics & Text | Print | Product List | Glossary On
Versions: 1 2 3 4 5 6 7 8 9 10 11 12 13 14 15 16 17 18 19 20 21 22 23 24 25 26 27 28 29 30 31 32 33 34 35 36 37 38 39 40 41 42 43 44 45 46 47 48 49 50
764
FTUS43 KGRB 261539 AAD
TAFRHI
TAF AMD
KRHI 261539Z 2616/2712 24008G15KT P6SM -SHRA BKN035 OVC090
     FM262100 23005KT P6SM SCT040 BKN250
     FM270400 VRB03KT 3SM BR SCT005 BKN250
      TEMPO 2708/2712 1/2SM FG OVC004=

USA.gov is the U.S. government's official web portal to all federal, state and local government web resources and services.